Clarksville, Indiana
Current Conditions -  °F | °C
As of 10:53 AM on Sunday 23 Nov 2014 (Local Time) from KLOU Reporting Station
Overcast Overcast  
Wind Chill: 58°   Ceiling: 6000
Heat Index: 58°   Visibility: 9mi
Dew Point: 43°   Wind: 12mph
Humidity: 58%   Direction: 130°SE
Pressure: 29.86"   Gusts: 16mph
Location:  38.29°N, 85.76°W
Report Text: KLOU 231553Z 13010G14KT 9SM OVC060 14/06 A2986 RMK AO2 SLP111 T01440061
Loading
Personal Weather Stations






























Interactive Weather Map New forecast layout! Learn more

10-Day Weather Forecast

Advertisements
Track Severe Weather on mobile